Beaver River, New York
Current Conditions -  °F | °C
As of 12:43 PM on Tuesday 21 Oct 2014 (Local Time) from KGTB Reporting Station
Drizzle Drizzle  
Wind Chill: 50°   Ceiling: 1300
Heat Index: 50°   Visibility: 10mi
Dew Point: 48°   Wind: 9mph
Humidity: 94%   Direction: 30°NNE
Pressure: 29.9"   Gusts: NA
Location:  43.7565°N, 75.5938°W
Report Text: KGTB 211643Z AUTO 03008KT 10SM -DZ BKN013 OVC032 10/09 A2990 RMK AO2 CIG 013V032
Loading
Personal Weather Stations






























Interactive Weather Map
Tropical Storm Tracking
New forecast layout! Learn more

10-Day Weather Forecast

Advertisements
Track Severe Weather on mobile